sensor_id;sensor_type;location;lat;lon;timestamp;temperature;humidity
16200;DHT22;8207;52.494;4.654;2022-09-09T00:00:13;16.80;99.90
16200;DHT22;8207;52.494;4.654;2022-09-09T00:02:43;16.80;99.90
16200;DHT22;8207;52.494;4.654;2022-09-09T00:05:17;16.80;99.90
16200;DHT22;8207;52.494;4.654;2022-09-09T00:07:52;16.80;99.90
16200;DHT22;8207;52.494;4.654;2022-09-09T00:10:25;16.70;99.90
16200;DHT22;8207;52.494;4.654;2022-09-09T00:12:59;16.70;99.90
16200;DHT22;8207;52.494;4.654;2022-09-09T00:15:34;16.70;99.90
16200;DHT22;8207;52.494;4.654;2022-09-09T00:18:11;16.70;99.90
16200;DHT22;8207;52.494;4.654;2022-09-09T00:20:45;16.60;99.90
16200;DHT22;8207;52.494;4.654;2022-09-09T00:23:22;16.60;99.90
16200;DHT22;8207;52.494;4.654;2022-09-09T00:25:57;16.60;99.90
16200;DHT22;8207;52.494;4.654;2022-09-09T00:28:28;16.60;99.90
16200;DHT22;8207;52.494;4.654;2022-09-09T00:31:00;16.60;99.90
16200;DHT22;8207;52.494;4.654;2022-09-09T00:33:30;16.60;99.90
16200;DHT22;8207;52.494;4.654;2022-09-09T00:35:58;16.50;99.90
16200;DHT22;8207;52.494;4.654;2022-09-09T00:38:32;16.50;99.90
16200;DHT22;8207;52.494;4.654;2022-09-09T00:41:04;16.50;99.90
16200;DHT22;8207;52.494;4.654;2022-09-09T00:43:37;16.50;99.90
16200;DHT22;8207;52.494;4.654;2022-09-09T00:46:33;16.40;99.90
16200;DHT22;8207;52.494;4.654;2022-09-09T00:49:15;16.50;99.90
16200;DHT22;8207;52.494;4.654;2022-09-09T00:51:49;16.40;99.90
16200;DHT22;8207;52.494;4.654;2022-09-09T00:54:36;16.40;99.90
16200;DHT22;8207;52.494;4.654;2022-09-09T00:57:13;16.40;99.90
16200;DHT22;8207;52.494;4.654;2022-09-09T00:59:47;16.40;99.90
16200;DHT22;8207;52.494;4.654;2022-09-09T01:02:21;16.40;99.90
16200;DHT22;8207;52.494;4.654;2022-09-09T01:04:49;16.30;99.90
16200;DHT22;8207;52.494;4.654;2022-09-09T01:07:17;16.30;99.90
16200;DHT22;8207;52.494;4.654;2022-09-09T01:09:55;16.30;99.90
16200;DHT22;8207;52.494;4.654;2022-09-09T01:12:33;16.30;99.90
16200;DHT22;8207;52.494;4.654;2022-09-09T01:15:09;16.30;99.90
16200;DHT22;8207;52.494;4.654;2022-09-09T01:17:48;16.20;99.90
16200;DHT22;8207;52.494;4.654;2022-09-09T01:20:20;16.20;99.90
16200;DHT22;8207;52.494;4.654;2022-09-09T01:23:03;16.20;99.90
16200;DHT22;8207;52.494;4.654;2022-09-09T01:28:47;16.20;99.90
16200;DHT22;8207;52.494;4.654;2022-09-09T01:31:17;16.20;99.90
16200;DHT22;8207;52.494;4.654;2022-09-09T01:33:45;16.10;99.90
16200;DHT22;8207;52.494;4.654;2022-09-09T01:36:15;16.10;99.90
16200;DHT22;8207;52.494;4.654;2022-09-09T01:38:44;16.10;99.90
16200;DHT22;8207;52.494;4.654;2022-09-09T01:41:11;16.10;99.90
16200;DHT22;8207;52.494;4.654;2022-09-09T01:43:38;16.10;99.90
16200;DHT22;8207;52.494;4.654;2022-09-09T01:46:06;16.10;99.90
16200;DHT22;8207;52.494;4.654;2022-09-09T01:48:34;16.00;99.90
16200;DHT22;8207;52.494;4.654;2022-09-09T01:51:01;16.00;99.90
16200;DHT22;8207;52.494;4.654;2022-09-09T01:53:28;16.00;99.90
16200;DHT22;8207;52.494;4.654;2022-09-09T01:56:02;16.00;99.90
16200;DHT22;8207;52.494;4.654;2022-09-09T01:58:41;16.00;99.90
16200;DHT22;8207;52.494;4.654;2022-09-09T02:01:15;15.90;99.90
16200;DHT22;8207;52.494;4.654;2022-09-09T02:03:49;15.90;99.90
16200;DHT22;8207;52.494;4.654;2022-09-09T02:06:26;15.90;99.90
16200;DHT22;8207;52.494;4.654;2022-09-09T02:08:56;15.90;99.90
16200;DHT22;8207;52.494;4.654;2022-09-09T02:11:24;15.80;99.90
16200;DHT22;8207;52.494;4.654;2022-09-09T02:13:54;15.80;99.90
16200;DHT22;8207;52.494;4.654;2022-09-09T02:16:26;15.80;99.90
16200;DHT22;8207;52.494;4.654;2022-09-09T02:18:57;15.80;99.90
16200;DHT22;8207;52.494;4.654;2022-09-09T02:21:29;15.80;99.90
16200;DHT22;8207;52.494;4.654;2022-09-09T02:23:59;15.80;99.90
16200;DHT22;8207;52.494;4.654;2022-09-09T02:26:31;15.70;99.90
16200;DHT22;8207;52.494;4.654;2022-09-09T02:29:03;15.70;99.90
16200;DHT22;8207;52.494;4.654;2022-09-09T02:31:33;15.70;99.90
16200;DHT22;8207;52.494;4.654;2022-09-09T02:34:03;15.70;99.90
16200;DHT22;8207;52.494;4.654;2022-09-09T02:36:33;15.70;99.90
16200;DHT22;8207;52.494;4.654;2022-09-09T02:39:03;15.70;99.90
16200;DHT22;8207;52.494;4.654;2022-09-09T02:41:33;15.70;99.90
16200;DHT22;8207;52.494;4.654;2022-09-09T02:44:02;15.70;99.90
16200;DHT22;8207;52.494;4.654;2022-09-09T02:49:28;15.60;99.90
16200;DHT22;8207;52.494;4.654;2022-09-09T02:52:01;15.60;99.90
16200;DHT22;8207;52.494;4.654;2022-09-09T02:54:30;15.60;99.90
16200;DHT22;8207;52.494;4.654;2022-09-09T02:57:03;15.60;99.90
16200;DHT22;8207;52.494;4.654;2022-09-09T02:59:30;15.50;99.90
16200;DHT22;8207;52.494;4.654;2022-09-09T03:01:59;15.50;99.90
16200;DHT22;8207;52.494;4.654;2022-09-09T03:04:26;15.50;99.90
16200;DHT22;8207;52.494;4.654;2022-09-09T03:06:54;15.40;99.90
16200;DHT22;8207;52.494;4.654;2022-09-09T03:09:20;15.40;99.90
16200;DHT22;8207;52.494;4.654;2022-09-09T03:11:47;15.50;99.90
16200;DHT22;8207;52.494;4.654;2022-09-09T03:14:15;15.40;99.90
16200;DHT22;8207;52.494;4.654;2022-09-09T03:16:42;15.40;99.90
16200;DHT22;8207;52.494;4.654;2022-09-09T03:19:10;15.40;99.90
16200;DHT22;8207;52.494;4.654;2022-09-09T03:21:37;15.40;99.90
16200;DHT22;8207;52.494;4.654;2022-09-09T03:24:04;15.40;99.90
16200;DHT22;8207;52.494;4.654;2022-09-09T03:26:32;15.50;99.90
16200;DHT22;8207;52.494;4.654;2022-09-09T03:28:59;15.40;99.90
16200;DHT22;8207;52.494;4.654;2022-09-09T03:31:26;15.40;99.90
16200;DHT22;8207;52.494;4.654;2022-09-09T03:33:55;15.40;99.90
16200;DHT22;8207;52.494;4.654;2022-09-09T03:36:25;15.40;99.90
16200;DHT22;8207;52.494;4.654;2022-09-09T03:38:53;15.40;99.90
16200;DHT22;8207;52.494;4.654;2022-09-09T03:41:20;15.30;99.90
16200;DHT22;8207;52.494;4.654;2022-09-09T03:43:49;15.30;99.90
16200;DHT22;8207;52.494;4.654;2022-09-09T03:46:16;15.30;99.90
16200;DHT22;8207;52.494;4.654;2022-09-09T03:48:43;15.30;99.90
16200;DHT22;8207;52.494;4.654;2022-09-09T03:51:10;15.30;99.90
16200;DHT22;8207;52.494;4.654;2022-09-09T03:53:38;15.30;99.90
16200;DHT22;8207;52.494;4.654;2022-09-09T03:56:06;15.30;99.90
16200;DHT22;8207;52.494;4.654;2022-09-09T03:58:35;15.30;99.90
16200;DHT22;8207;52.494;4.654;2022-09-09T04:01:04;15.20;99.90
16200;DHT22;8207;52.494;4.654;2022-09-09T04:03:31;15.20;99.90
16200;DHT22;8207;52.494;4.654;2022-09-09T04:06:00;15.20;99.90
16200;DHT22;8207;52.494;4.654;2022-09-09T04:08:27;15.10;99.90
16200;DHT22;8207;52.494;4.654;2022-09-09T04:10:58;15.10;99.90
16200;DHT22;8207;52.494;4.654;2022-09-09T04:13:26;15.10;99.90
16200;DHT22;8207;52.494;4.654;2022-09-09T04:15:54;15.10;99.90
16200;DHT22;8207;52.494;4.654;2022-09-09T04:18:21;15.10;99.90
16200;DHT22;8207;52.494;4.654;2022-09-09T04:20:50;15.10;99.90
16200;DHT22;8207;52.494;4.654;2022-09-09T04:23:17;15.10;99.90
16200;DHT22;8207;52.494;4.654;2022-09-09T04:25:46;15.10;99.90
16200;DHT22;8207;52.494;4.654;2022-09-09T04:28:16;15.10;99.90
16200;DHT22;8207;52.494;4.654;2022-09-09T04:30:43;15.10;99.90
16200;DHT22;8207;52.494;4.654;2022-09-09T04:33:11;15.00;99.90
16200;DHT22;8207;52.494;4.654;2022-09-09T04:35:39;15.00;99.90
16200;DHT22;8207;52.494;4.654;2022-09-09T04:38:06;15.00;99.90
16200;DHT22;8207;52.494;4.654;2022-09-09T04:40:34;15.00;99.90
16200;DHT22;8207;52.494;4.654;2022-09-09T04:43:03;15.00;99.90
16200;DHT22;8207;52.494;4.654;2022-09-09T04:45:31;15.00;99.90
16200;DHT22;8207;52.494;4.654;2022-09-09T04:47:59;15.00;99.90
16200;DHT22;8207;52.494;4.654;2022-09-09T04:50:25;15.00;99.90
16200;DHT22;8207;52.494;4.654;2022-09-09T04:52:54;15.00;99.90
16200;DHT22;8207;52.494;4.654;2022-09-09T04:55:20;14.90;99.90
16200;DHT22;8207;52.494;4.654;2022-09-09T04:57:47;14.90;99.90
16200;DHT22;8207;52.494;4.654;2022-09-09T05:00:15;14.90;99.90
16200;DHT22;8207;52.494;4.654;2022-09-09T05:02:43;14.90;99.90
16200;DHT22;8207;52.494;4.654;2022-09-09T05:05:10;14.80;99.90
16200;DHT22;8207;52.494;4.654;2022-09-09T05:07:37;14.80;99.90
16200;DHT22;8207;52.494;4.654;2022-09-09T05:10:05;14.80;99.90
16200;DHT22;8207;52.494;4.654;2022-09-09T05:12:31;14.80;99.90
16200;DHT22;8207;52.494;4.654;2022-09-09T05:14:58;14.90;99.90
16200;DHT22;8207;52.494;4.654;2022-09-09T05:17:25;14.80;99.90
16200;DHT22;8207;52.494;4.654;2022-09-09T05:19:54;14.80;99.90
16200;DHT22;8207;52.494;4.654;2022-09-09T05:22:21;14.80;99.90
16200;DHT22;8207;52.494;4.654;2022-09-09T05:24:48;14.80;99.90
16200;DHT22;8207;52.494;4.654;2022-09-09T05:27:16;14.80;99.90
16200;DHT22;8207;52.494;4.654;2022-09-09T05:29:45;14.80;99.90
16200;DHT22;8207;52.494;4.654;2022-09-09T05:32:12;14.80;99.90
16200;DHT22;8207;52.494;4.654;2022-09-09T05:34:40;14.80;99.90
16200;DHT22;8207;52.494;4.654;2022-09-09T05:37:08;14.80;99.90
16200;DHT22;8207;52.494;4.654;2022-09-09T05:39:35;14.80;99.90
16200;DHT22;8207;52.494;4.654;2022-09-09T05:42:03;14.80;99.90
16200;DHT22;8207;52.494;4.654;2022-09-09T05:44:31;14.80;99.90
16200;DHT22;8207;52.494;4.654;2022-09-09T05:46:58;14.80;99.90
16200;DHT22;8207;52.494;4.654;2022-09-09T05:49:24;14.80;99.90
16200;DHT22;8207;52.494;4.654;2022-09-09T05:51:51;14.90;99.90
16200;DHT22;8207;52.494;4.654;2022-09-09T05:54:20;14.80;99.90
16200;DHT22;8207;52.494;4.654;2022-09-09T05:56:47;14.90;99.90
16200;DHT22;8207;52.494;4.654;2022-09-09T05:59:15;14.90;99.90
16200;DHT22;8207;52.494;4.654;2022-09-09T06:01:42;14.90;99.90
16200;DHT22;8207;52.494;4.654;2022-09-09T06:04:09;14.90;99.90
16200;DHT22;8207;52.494;4.654;2022-09-09T06:06:37;14.90;99.90
16200;DHT22;8207;52.494;4.654;2022-09-09T06:09:06;14.90;99.90
16200;DHT22;8207;52.494;4.654;2022-09-09T06:11:37;14.90;99.90
16200;DHT22;8207;52.494;4.654;2022-09-09T06:14:04;15.00;99.90
16200;DHT22;8207;52.494;4.654;2022-09-09T06:16:32;15.00;99.90
16200;DHT22;8207;52.494;4.654;2022-09-09T06:19:00;15.10;99.90
16200;DHT22;8207;52.494;4.654;2022-09-09T06:21:30;15.10;99.90
16200;DHT22;8207;52.494;4.654;2022-09-09T06:23:58;15.20;99.90
16200;DHT22;8207;52.494;4.654;2022-09-09T06:26:27;15.30;99.90
16200;DHT22;8207;52.494;4.654;2022-09-09T06:28:56;15.30;99.90
16200;DHT22;8207;52.494;4.654;2022-09-09T06:31:24;15.40;99.90
16200;DHT22;8207;52.494;4.654;2022-09-09T06:33:53;15.40;99.90
16200;DHT22;8207;52.494;4.654;2022-09-09T06:36:22;15.40;99.90
16200;DHT22;8207;52.494;4.654;2022-09-09T06:38:50;15.50;99.90
16200;DHT22;8207;52.494;4.654;2022-09-09T06:41:18;15.50;99.90
16200;DHT22;8207;52.494;4.654;2022-09-09T06:43:45;15.50;99.90
16200;DHT22;8207;52.494;4.654;2022-09-09T06:46:16;15.60;99.90
16200;DHT22;8207;52.494;4.654;2022-09-09T06:48:44;15.70;99.90
16200;DHT22;8207;52.494;4.654;2022-09-09T06:51:13;15.80;99.90
16200;DHT22;8207;52.494;4.654;2022-09-09T06:53:41;15.90;99.90
16200;DHT22;8207;52.494;4.654;2022-09-09T06:56:19;15.90;99.90
16200;DHT22;8207;52.494;4.654;2022-09-09T06:58:47;16.00;99.90
16200;DHT22;8207;52.494;4.654;2022-09-09T07:01:17;16.00;99.90
16200;DHT22;8207;52.494;4.654;2022-09-09T07:03:46;16.00;99.90
16200;DHT22;8207;52.494;4.654;2022-09-09T07:06:15;16.00;99.90
16200;DHT22;8207;52.494;4.654;2022-09-09T07:08:43;16.00;99.90
16200;DHT22;8207;52.494;4.654;2022-09-09T07:11:10;16.10;99.90
16200;DHT22;8207;52.494;4.654;2022-09-09T07:13:37;16.10;99.90
16200;DHT22;8207;52.494;4.654;2022-09-09T07:16:04;16.20;99.90
16200;DHT22;8207;52.494;4.654;2022-09-09T07:18:34;16.20;99.90
16200;DHT22;8207;52.494;4.654;2022-09-09T07:21:01;16.20;99.90
16200;DHT22;8207;52.494;4.654;2022-09-09T07:23:29;16.30;99.90
16200;DHT22;8207;52.494;4.654;2022-09-09T07:25:56;16.30;99.90
16200;DHT22;8207;52.494;4.654;2022-09-09T07:28:24;16.40;99.90
16200;DHT22;8207;52.494;4.654;2022-09-09T07:30:55;16.40;99.90
16200;DHT22;8207;52.494;4.654;2022-09-09T07:33:22;16.50;99.90
16200;DHT22;8207;52.494;4.654;2022-09-09T07:35:51;16.50;99.90
16200;DHT22;8207;52.494;4.654;2022-09-09T07:38:18;16.50;99.90
16200;DHT22;8207;52.494;4.654;2022-09-09T07:40:45;16.60;99.90
16200;DHT22;8207;52.494;4.654;2022-09-09T07:43:12;16.60;99.90
16200;DHT22;8207;52.494;4.654;2022-09-09T07:45:39;16.70;99.90
16200;DHT22;8207;52.494;4.654;2022-09-09T07:48:08;16.80;99.90
16200;DHT22;8207;52.494;4.654;2022-09-09T07:50:35;17.00;99.90
16200;DHT22;8207;52.494;4.654;2022-09-09T07:53:03;17.10;99.90
16200;DHT22;8207;52.494;4.654;2022-09-09T07:55:31;17.20;99.90
16200;DHT22;8207;52.494;4.654;2022-09-09T07:57:58;17.20;99.90
16200;DHT22;8207;52.494;4.654;2022-09-09T08:00:25;17.20;99.90
16200;DHT22;8207;52.494;4.654;2022-09-09T08:02:53;17.20;99.90
16200;DHT22;8207;52.494;4.654;2022-09-09T08:05:20;17.30;99.90
16200;DHT22;8207;52.494;4.654;2022-09-09T08:07:47;17.40;99.90
16200;DHT22;8207;52.494;4.654;2022-09-09T08:10:16;17.30;99.90
16200;DHT22;8207;52.494;4.654;2022-09-09T08:12:43;17.40;99.90
16200;DHT22;8207;52.494;4.654;2022-09-09T08:15:11;17.40;99.90
16200;DHT22;8207;52.494;4.654;2022-09-09T08:17:38;17.40;99.90
16200;DHT22;8207;52.494;4.654;2022-09-09T08:20:05;17.50;99.90
16200;DHT22;8207;52.494;4.654;2022-09-09T08:22:32;17.50;99.90
16200;DHT22;8207;52.494;4.654;2022-09-09T08:24:59;17.50;99.90
16200;DHT22;8207;52.494;4.654;2022-09-09T08:27:29;17.70;99.90
16200;DHT22;8207;52.494;4.654;2022-09-09T08:29:57;17.90;99.90
16200;DHT22;8207;52.494;4.654;2022-09-09T08:32:24;18.10;99.90
16200;DHT22;8207;52.494;4.654;2022-09-09T08:34:51;18.20;99.90
16200;DHT22;8207;52.494;4.654;2022-09-09T08:37:18;18.10;99.90
16200;DHT22;8207;52.494;4.654;2022-09-09T08:39:45;18.10;99.90
16200;DHT22;8207;52.494;4.654;2022-09-09T08:42:35;18.10;99.90
16200;DHT22;8207;52.494;4.654;2022-09-09T08:45:29;18.10;99.90
16200;DHT22;8207;52.494;4.654;2022-09-09T08:48:19;17.90;99.90
16200;DHT22;8207;52.494;4.654;2022-09-09T08:50:49;17.90;99.90
16200;DHT22;8207;52.494;4.654;2022-09-09T08:53:20;17.90;99.90
16200;DHT22;8207;52.494;4.654;2022-09-09T08:55:52;17.90;99.90
16200;DHT22;8207;52.494;4.654;2022-09-09T08:58:25;17.90;99.90
16200;DHT22;8207;52.494;4.654;2022-09-09T09:01:14;17.90;99.90
16200;DHT22;8207;52.494;4.654;2022-09-09T09:03:49;17.90;99.90
16200;DHT22;8207;52.494;4.654;2022-09-09T09:06:30;18.00;99.90
16200;DHT22;8207;52.494;4.654;2022-09-09T09:09:04;18.20;99.90
16200;DHT22;8207;52.494;4.654;2022-09-09T09:11:36;18.30;99.90
16200;DHT22;8207;52.494;4.654;2022-09-09T09:14:10;18.40;99.90
16200;DHT22;8207;52.494;4.654;2022-09-09T09:16:43;18.50;99.90
16200;DHT22;8207;52.494;4.654;2022-09-09T09:19:15;18.50;99.90
16200;DHT22;8207;52.494;4.654;2022-09-09T09:21:45;18.60;99.90
16200;DHT22;8207;52.494;4.654;2022-09-09T09:24:19;18.50;99.90
16200;DHT22;8207;52.494;4.654;2022-09-09T09:26:46;18.60;99.90
16200;DHT22;8207;52.494;4.654;2022-09-09T09:29:17;18.50;99.90
16200;DHT22;8207;52.494;4.654;2022-09-09T09:31:48;18.40;99.90
16200;DHT22;8207;52.494;4.654;2022-09-09T09:34:17;18.40;99.90
16200;DHT22;8207;52.494;4.654;2022-09-09T09:36:46;18.40;99.90
16200;DHT22;8207;52.494;4.654;2022-09-09T09:39:24;18.30;99.90
16200;DHT22;8207;52.494;4.654;2022-09-09T09:41:51;18.20;99.90
16200;DHT22;8207;52.494;4.654;2022-09-09T09:44:27;18.20;99.90
16200;DHT22;8207;52.494;4.654;2022-09-09T09:47:06;18.10;99.90
16200;DHT22;8207;52.494;4.654;2022-09-09T09:49:33;18.10;99.90
16200;DHT22;8207;52.494;4.654;2022-09-09T09:52:01;18.10;99.90
16200;DHT22;8207;52.494;4.654;2022-09-09T09:54:30;18.20;99.90
16200;DHT22;8207;52.494;4.654;2022-09-09T09:57:08;18.40;99.90
16200;DHT22;8207;52.494;4.654;2022-09-09T09:59:37;18.60;99.90
16200;DHT22;8207;52.494;4.654;2022-09-09T10:02:19;18.70;99.90
16200;DHT22;8207;52.494;4.654;2022-09-09T10:04:48;18.60;99.90
16200;DHT22;8207;52.494;4.654;2022-09-09T10:07:19;18.70;99.90
16200;DHT22;8207;52.494;4.654;2022-09-09T10:09:48;18.70;99.90
16200;DHT22;8207;52.494;4.654;2022-09-09T10:12:26;18.70;99.90
16200;DHT22;8207;52.494;4.654;2022-09-09T10:15:00;18.70;99.90
16200;DHT22;8207;52.494;4.654;2022-09-09T10:17:34;18.90;99.90
16200;DHT22;8207;52.494;4.654;2022-09-09T10:20:17;19.10;99.90
16200;DHT22;8207;52.494;4.654;2022-09-09T10:22:51;19.20;99.90
16200;DHT22;8207;52.494;4.654;2022-09-09T10:25:34;19.40;99.90
16200;DHT22;8207;52.494;4.654;2022-09-09T10:28:25;19.40;99.90
16200;DHT22;8207;52.494;4.654;2022-09-09T10:31:05;19.50;99.90
16200;DHT22;8207;52.494;4.654;2022-09-09T10:33:41;19.70;99.90
16200;DHT22;8207;52.494;4.654;2022-09-09T10:36:13;19.80;99.90
16200;DHT22;8207;52.494;4.654;2022-09-09T10:38:45;19.70;99.90
16200;DHT22;8207;52.494;4.654;2022-09-09T10:41:19;19.80;99.90
16200;DHT22;8207;52.494;4.654;2022-09-09T10:44:01;19.80;99.90
16200;DHT22;8207;52.494;4.654;2022-09-09T10:46:41;19.80;99.90
16200;DHT22;8207;52.494;4.654;2022-09-09T10:49:20;19.80;99.90
16200;DHT22;8207;52.494;4.654;2022-09-09T10:51:57;19.80;99.90
16200;DHT22;8207;52.494;4.654;2022-09-09T10:54:36;19.90;99.90
16200;DHT22;8207;52.494;4.654;2022-09-09T10:57:13;19.90;99.90
16200;DHT22;8207;52.494;4.654;2022-09-09T10:59:47;19.80;99.90
16200;DHT22;8207;52.494;4.654;2022-09-09T11:02:21;19.90;99.90
16200;DHT22;8207;52.494;4.654;2022-09-09T11:04:55;19.80;99.90
16200;DHT22;8207;52.494;4.654;2022-09-09T11:07:29;19.90;99.90
16200;DHT22;8207;52.494;4.654;2022-09-09T11:10:02;19.90;99.90
16200;DHT22;8207;52.494;4.654;2022-09-09T11:12:35;19.90;99.90
16200;DHT22;8207;52.494;4.654;2022-09-09T11:15:08;19.90;99.90
16200;DHT22;8207;52.494;4.654;2022-09-09T11:17:45;19.80;99.90
16200;DHT22;8207;52.494;4.654;2022-09-09T11:20:14;19.90;99.90
16200;DHT22;8207;52.494;4.654;2022-09-09T11:22:47;19.90;99.90
16200;DHT22;8207;52.494;4.654;2022-09-09T11:25:16;19.70;99.90
16200;DHT22;8207;52.494;4.654;2022-09-09T11:27:54;19.70;99.90
16200;DHT22;8207;52.494;4.654;2022-09-09T11:30:32;19.50;99.90
16200;DHT22;8207;52.494;4.654;2022-09-09T11:36:21;19.20;99.90
16200;DHT22;8207;52.494;4.654;2022-09-09T11:38:52;19.10;99.90
16200;DHT22;8207;52.494;4.654;2022-09-09T11:41:20;19.10;99.90
16200;DHT22;8207;52.494;4.654;2022-09-09T11:43:49;19.10;99.90
16200;DHT22;8207;52.494;4.654;2022-09-09T11:46:19;19.10;99.90
16200;DHT22;8207;52.494;4.654;2022-09-09T11:48:58;19.00;99.90
16200;DHT22;8207;52.494;4.654;2022-09-09T11:51:28;19.10;99.90
16200;DHT22;8207;52.494;4.654;2022-09-09T11:53:57;19.10;99.90
16200;DHT22;8207;52.494;4.654;2022-09-09T11:56:29;19.20;99.90
16200;DHT22;8207;52.494;4.654;2022-09-09T11:59:00;19.20;99.90
16200;DHT22;8207;52.494;4.654;2022-09-09T12:01:39;19.30;99.90
16200;DHT22;8207;52.494;4.654;2022-09-09T12:04:28;19.30;99.90
16200;DHT22;8207;52.494;4.654;2022-09-09T12:07:00;19.10;99.90
16200;DHT22;8207;52.494;4.654;2022-09-09T12:09:44;19.00;99.90
16200;DHT22;8207;52.494;4.654;2022-09-09T12:12:32;18.80;99.90
16200;DHT22;8207;52.494;4.654;2022-09-09T12:15:32;18.90;99.90
16200;DHT22;8207;52.494;4.654;2022-09-09T12:17:59;19.10;99.90
16200;DHT22;8207;52.494;4.654;2022-09-09T12:20:32;19.20;99.90
16200;DHT22;8207;52.494;4.654;2022-09-09T12:25:58;19.70;99.90
16200;DHT22;8207;52.494;4.654;2022-09-09T12:28:37;19.90;99.90
16200;DHT22;8207;52.494;4.654;2022-09-09T12:31:11;20.00;99.90
16200;DHT22;8207;52.494;4.654;2022-09-09T12:33:44;20.00;99.90
16200;DHT22;8207;52.494;4.654;2022-09-09T12:36:14;20.20;99.90
16200;DHT22;8207;52.494;4.654;2022-09-09T12:38:43;20.40;99.90
16200;DHT22;8207;52.494;4.654;2022-09-09T12:41:19;20.40;99.90
16200;DHT22;8207;52.494;4.654;2022-09-09T12:43:46;20.50;99.90
16200;DHT22;8207;52.494;4.654;2022-09-09T12:46:25;20.40;99.90
16200;DHT22;8207;52.494;4.654;2022-09-09T12:48:54;20.10;99.90
16200;DHT22;8207;52.494;4.654;2022-09-09T12:51:26;19.90;99.90
16200;DHT22;8207;52.494;4.654;2022-09-09T12:53:56;19.90;99.90
16200;DHT22;8207;52.494;4.654;2022-09-09T12:56:24;20.10;99.90
16200;DHT22;8207;52.494;4.654;2022-09-09T12:58:55;20.20;99.90
16200;DHT22;8207;52.494;4.654;2022-09-09T13:01:24;20.30;99.90
16200;DHT22;8207;52.494;4.654;2022-09-09T13:03:52;20.60;99.90
16200;DHT22;8207;52.494;4.654;2022-09-09T13:06:22;20.70;99.90
16200;DHT22;8207;52.494;4.654;2022-09-09T13:08:49;20.70;99.90
16200;DHT22;8207;52.494;4.654;2022-09-09T13:11:20;20.60;99.90
16200;DHT22;8207;52.494;4.654;2022-09-09T13:13:52;20.60;99.90
16200;DHT22;8207;52.494;4.654;2022-09-09T13:16:23;20.40;99.90
16200;DHT22;8207;52.494;4.654;2022-09-09T13:18:52;20.40;99.90
16200;DHT22;8207;52.494;4.654;2022-09-09T13:21:31;20.20;99.90
16200;DHT22;8207;52.494;4.654;2022-09-09T13:23:58;20.20;99.90
16200;DHT22;8207;52.494;4.654;2022-09-09T13:26:30;20.30;99.90
16200;DHT22;8207;52.494;4.654;2022-09-09T13:29:08;20.20;99.90
16200;DHT22;8207;52.494;4.654;2022-09-09T13:31:43;20.20;99.90
16200;DHT22;8207;52.494;4.654;2022-09-09T13:34:13;20.20;99.90
16200;DHT22;8207;52.494;4.654;2022-09-09T13:36:41;20.10;99.90
16200;DHT22;8207;52.494;4.654;2022-09-09T13:39:15;20.10;99.90
16200;DHT22;8207;52.494;4.654;2022-09-09T13:41:45;20.00;99.90
16200;DHT22;8207;52.494;4.654;2022-09-09T13:44:19;20.00;99.90
16200;DHT22;8207;52.494;4.654;2022-09-09T13:46:58;20.10;99.90
16200;DHT22;8207;52.494;4.654;2022-09-09T13:49:28;20.00;99.90
16200;DHT22;8207;52.494;4.654;2022-09-09T13:52:04;20.00;99.90
16200;DHT22;8207;52.494;4.654;2022-09-09T13:54:33;19.90;99.90
16200;DHT22;8207;52.494;4.654;2022-09-09T13:57:01;19.90;99.90
16200;DHT22;8207;52.494;4.654;2022-09-09T13:59:30;19.80;99.90
16200;DHT22;8207;52.494;4.654;2022-09-09T14:01:57;19.80;99.90
16200;DHT22;8207;52.494;4.654;2022-09-09T14:04:23;19.90;99.90
16200;DHT22;8207;52.494;4.654;2022-09-09T14:06:50;20.00;99.90
16200;DHT22;8207;52.494;4.654;2022-09-09T14:09:18;20.00;99.90
16200;DHT22;8207;52.494;4.654;2022-09-09T14:11:45;20.00;99.90
16200;DHT22;8207;52.494;4.654;2022-09-09T14:14:13;19.90;99.90
16200;DHT22;8207;52.494;4.654;2022-09-09T14:16:40;19.80;99.90
16200;DHT22;8207;52.494;4.654;2022-09-09T14:19:08;19.80;99.90
16200;DHT22;8207;52.494;4.654;2022-09-09T14:21:34;19.70;99.90
16200;DHT22;8207;52.494;4.654;2022-09-09T14:24:02;19.70;99.90
16200;DHT22;8207;52.494;4.654;2022-09-09T14:26:28;19.70;99.90
16200;DHT22;8207;52.494;4.654;2022-09-09T14:28:55;19.70;99.90
16200;DHT22;8207;52.494;4.654;2022-09-09T14:31:24;19.70;99.90
16200;DHT22;8207;52.494;4.654;2022-09-09T14:33:51;19.60;99.90
16200;DHT22;8207;52.494;4.654;2022-09-09T14:36:18;19.50;99.90
16200;DHT22;8207;52.494;4.654;2022-09-09T14:38:45;19.50;99.90
16200;DHT22;8207;52.494;4.654;2022-09-09T14:41:13;19.50;99.90
16200;DHT22;8207;52.494;4.654;2022-09-09T14:43:42;19.40;99.90
16200;DHT22;8207;52.494;4.654;2022-09-09T14:46:11;19.30;99.90
16200;DHT22;8207;52.494;4.654;2022-09-09T14:48:39;19.30;99.90
16200;DHT22;8207;52.494;4.654;2022-09-09T14:51:07;19.20;99.90
16200;DHT22;8207;52.494;4.654;2022-09-09T14:53:35;19.10;99.90
16200;DHT22;8207;52.494;4.654;2022-09-09T14:56:04;19.10;99.90
16200;DHT22;8207;52.494;4.654;2022-09-09T14:58:31;19.00;99.90
16200;DHT22;8207;52.494;4.654;2022-09-09T15:01:02;18.90;99.90
16200;DHT22;8207;52.494;4.654;2022-09-09T15:03:29;18.90;99.90
16200;DHT22;8207;52.494;4.654;2022-09-09T15:05:57;18.80;99.90
16200;DHT22;8207;52.494;4.654;2022-09-09T15:08:24;18.80;99.90
16200;DHT22;8207;52.494;4.654;2022-09-09T15:10:59;18.80;99.90
16200;DHT22;8207;52.494;4.654;2022-09-09T15:13:25;18.70;99.90
16200;DHT22;8207;52.494;4.654;2022-09-09T15:15:52;18.70;99.90
16200;DHT22;8207;52.494;4.654;2022-09-09T15:18:20;18.70;99.90
16200;DHT22;8207;52.494;4.654;2022-09-09T15:20:47;18.60;99.90
16200;DHT22;8207;52.494;4.654;2022-09-09T15:23:15;18.60;99.90
16200;DHT22;8207;52.494;4.654;2022-09-09T15:25:51;18.60;99.90
16200;DHT22;8207;52.494;4.654;2022-09-09T15:28:18;18.50;99.90
16200;DHT22;8207;52.494;4.654;2022-09-09T15:30:47;18.50;99.90
16200;DHT22;8207;52.494;4.654;2022-09-09T15:33:14;18.50;99.90
16200;DHT22;8207;52.494;4.654;2022-09-09T15:35:41;18.50;99.90
16200;DHT22;8207;52.494;4.654;2022-09-09T15:38:08;18.40;99.90
16200;DHT22;8207;52.494;4.654;2022-09-09T15:40:36;18.40;99.90
16200;DHT22;8207;52.494;4.654;2022-09-09T15:43:05;18.40;99.90
16200;DHT22;8207;52.494;4.654;2022-09-09T15:45:31;18.30;99.90
16200;DHT22;8207;52.494;4.654;2022-09-09T15:47:59;18.30;99.90
16200;DHT22;8207;52.494;4.654;2022-09-09T15:50:26;18.30;99.90
16200;DHT22;8207;52.494;4.654;2022-09-09T15:52:53;18.30;99.90
16200;DHT22;8207;52.494;4.654;2022-09-09T15:55:20;18.20;99.90
16200;DHT22;8207;52.494;4.654;2022-09-09T15:57:51;18.20;99.90
16200;DHT22;8207;52.494;4.654;2022-09-09T16:00:19;18.20;99.90
16200;DHT22;8207;52.494;4.654;2022-09-09T16:02:48;18.20;99.90
16200;DHT22;8207;52.494;4.654;2022-09-09T16:05:15;18.20;99.90
16200;DHT22;8207;52.494;4.654;2022-09-09T16:07:42;18.20;99.90
16200;DHT22;8207;52.494;4.654;2022-09-09T16:10:10;18.20;99.90
16200;DHT22;8207;52.494;4.654;2022-09-09T16:12:39;18.10;99.90
16200;DHT22;8207;52.494;4.654;2022-09-09T16:15:07;18.10;99.90
16200;DHT22;8207;52.494;4.654;2022-09-09T16:17:34;18.10;99.90